Franklin, Alabama
Current Conditions -  °F | °C
As of 7:53 AM on Thursday 30 Oct 2014 (Local Time) from KGZH Reporting Station
Clear Clear  
Wind Chill: 54°   Ceiling: Unl
Heat Index: 54°   Visibility: 10mi
Dew Point: 50°   Wind: 3mph
Humidity: 86%   Direction: 350°N
Pressure: 30.11"   Gusts: NA
Location:  31.71°N, 87.44°W
Report Text: KGZH 301253Z AUTO 35003KT 10SM CLR 12/10 A3011 RMK AO2 SLP192 T01220100
Loading
Personal Weather Stations






























Interactive Weather Map
Tropical Storm Tracking
New forecast layout! Learn more

10-Day Weather Forecast

Advertisements
Track Severe Weather on mobile